sensor_id;sensor_type;location;lat;lon;timestamp;temperature;humidity
83283;DHT22;73190;50.780;5.658;2023-12-14T00:02:12;10.70;86.10
83283;DHT22;73190;50.780;5.658;2023-12-14T00:04:40;10.70;85.40
83283;DHT22;73190;50.780;5.658;2023-12-14T00:07:07;10.70;85.70
83283;DHT22;73190;50.780;5.658;2023-12-14T00:09:35;10.70;85.70
83283;DHT22;73190;50.780;5.658;2023-12-14T00:12:03;10.70;85.70
83283;DHT22;73190;50.780;5.658;2023-12-14T00:14:30;10.70;86.00
83283;DHT22;73190;50.780;5.658;2023-12-14T00:16:57;10.70;85.70
83283;DHT22;73190;50.780;5.658;2023-12-14T00:19:25;10.70;85.50
83283;DHT22;73190;50.780;5.658;2023-12-14T00:21:53;10.70;85.60
83283;DHT22;73190;50.780;5.658;2023-12-14T00:24:19;10.70;85.80
83283;DHT22;73190;50.780;5.658;2023-12-14T00:26:46;10.70;86.10
83283;DHT22;73190;50.780;5.658;2023-12-14T00:29:13;10.70;86.20
83283;DHT22;73190;50.780;5.658;2023-12-14T00:31:40;10.60;86.10
83283;DHT22;73190;50.780;5.658;2023-12-14T00:34:07;10.70;86.20
83283;DHT22;73190;50.780;5.658;2023-12-14T00:36:33;10.70;86.00
83283;DHT22;73190;50.780;5.658;2023-12-14T00:39:00;10.70;86.20
83283;DHT22;73190;50.780;5.658;2023-12-14T00:41:27;10.70;85.90
83283;DHT22;73190;50.780;5.658;2023-12-14T00:43:54;10.70;85.60
83283;DHT22;73190;50.780;5.658;2023-12-14T00:46:21;10.70;85.40
83283;DHT22;73190;50.780;5.658;2023-12-14T00:48:48;10.70;85.70
83283;DHT22;73190;50.780;5.658;2023-12-14T00:51:14;10.70;85.80
83283;DHT22;73190;50.780;5.658;2023-12-14T00:53:41;10.60;86.10
83283;DHT22;73190;50.780;5.658;2023-12-14T00:56:08;10.60;86.10
83283;DHT22;73190;50.780;5.658;2023-12-14T00:58:35;10.60;86.00
83283;DHT22;73190;50.780;5.658;2023-12-14T01:01:02;10.70;85.90
83283;DHT22;73190;50.780;5.658;2023-12-14T01:03:29;10.70;85.90
83283;DHT22;73190;50.780;5.658;2023-12-14T01:05:56;10.70;85.80
83283;DHT22;73190;50.780;5.658;2023-12-14T01:08:23;10.70;85.90
83283;DHT22;73190;50.780;5.658;2023-12-14T01:10:50;10.70;85.80
83283;DHT22;73190;50.780;5.658;2023-12-14T01:13:17;10.80;85.70
83283;DHT22;73190;50.780;5.658;2023-12-14T01:15:44;10.80;85.90
83283;DHT22;73190;50.780;5.658;2023-12-14T01:18:10;10.70;85.60
83283;DHT22;73190;50.780;5.658;2023-12-14T01:20:38;10.70;85.90
83283;DHT22;73190;50.780;5.658;2023-12-14T01:23:05;10.80;85.90
83283;DHT22;73190;50.780;5.658;2023-12-14T01:25:34;10.80;85.80
83283;DHT22;73190;50.780;5.658;2023-12-14T01:28:01;10.70;85.90
83283;DHT22;73190;50.780;5.658;2023-12-14T01:30:28;10.80;85.80
83283;DHT22;73190;50.780;5.658;2023-12-14T01:32:54;10.70;85.80
83283;DHT22;73190;50.780;5.658;2023-12-14T01:35:21;10.80;85.70
83283;DHT22;73190;50.780;5.658;2023-12-14T01:37:48;10.80;86.10
83283;DHT22;73190;50.780;5.658;2023-12-14T01:40:16;10.70;86.30
83283;DHT22;73190;50.780;5.658;2023-12-14T01:42:43;10.70;86.10
83283;DHT22;73190;50.780;5.658;2023-12-14T01:45:11;10.70;86.50
83283;DHT22;73190;50.780;5.658;2023-12-14T01:47:40;10.70;86.60
83283;DHT22;73190;50.780;5.658;2023-12-14T01:50:07;10.70;86.60
83283;DHT22;73190;50.780;5.658;2023-12-14T01:52:33;10.70;87.00
83283;DHT22;73190;50.780;5.658;2023-12-14T01:55:00;10.90;86.80
83283;DHT22;73190;50.780;5.658;2023-12-14T01:57:29;10.80;86.00
83283;DHT22;73190;50.780;5.658;2023-12-14T01:59:56;10.70;86.30
83283;DHT22;73190;50.780;5.658;2023-12-14T02:02:23;10.70;86.80
83283;DHT22;73190;50.780;5.658;2023-12-14T02:04:49;10.70;86.70
83283;DHT22;73190;50.780;5.658;2023-12-14T02:07:16;10.70;86.40
83283;DHT22;73190;50.780;5.658;2023-12-14T02:12:29;10.70;87.00
83283;DHT22;73190;50.780;5.658;2023-12-14T02:14:56;10.70;86.80
83283;DHT22;73190;50.780;5.658;2023-12-14T02:17:23;10.70;86.60
83283;DHT22;73190;50.780;5.658;2023-12-14T02:19:50;11.00;85.00
83283;DHT22;73190;50.780;5.658;2023-12-14T02:22:16;10.80;85.60
83283;DHT22;73190;50.780;5.658;2023-12-14T02:24:43;10.70;86.40
83283;DHT22;73190;50.780;5.658;2023-12-14T02:27:10;10.80;86.30
83283;DHT22;73190;50.780;5.658;2023-12-14T02:29:37;10.80;86.00
83283;DHT22;73190;50.780;5.658;2023-12-14T02:32:06;10.70;86.50
83283;DHT22;73190;50.780;5.658;2023-12-14T02:34:33;10.60;86.80
83283;DHT22;73190;50.780;5.658;2023-12-14T02:37:00;10.70;86.50
83283;DHT22;73190;50.780;5.658;2023-12-14T02:39:27;10.60;86.70
83283;DHT22;73190;50.780;5.658;2023-12-14T02:41:54;10.60;86.70
83283;DHT22;73190;50.780;5.658;2023-12-14T02:44:21;10.80;86.40
83283;DHT22;73190;50.780;5.658;2023-12-14T02:46:48;10.80;86.00
83283;DHT22;73190;50.780;5.658;2023-12-14T02:49:14;10.60;86.70
83283;DHT22;73190;50.780;5.658;2023-12-14T02:51:41;10.70;86.40
83283;DHT22;73190;50.780;5.658;2023-12-14T02:54:09;10.70;86.00
83283;DHT22;73190;50.780;5.658;2023-12-14T02:56:36;10.80;85.40
83283;DHT22;73190;50.780;5.658;2023-12-14T02:59:04;10.70;86.10
83283;DHT22;73190;50.780;5.658;2023-12-14T03:01:31;10.80;84.90
83283;DHT22;73190;50.780;5.658;2023-12-14T03:03:58;10.80;84.20
83283;DHT22;73190;50.780;5.658;2023-12-14T03:06:26;10.80;84.30
83283;DHT22;73190;50.780;5.658;2023-12-14T03:08:53;10.70;84.30
83283;DHT22;73190;50.780;5.658;2023-12-14T03:11:23;10.50;85.50
83283;DHT22;73190;50.780;5.658;2023-12-14T03:13:50;10.30;86.20
83283;DHT22;73190;50.780;5.658;2023-12-14T03:16:22;10.30;86.10
83283;DHT22;73190;50.780;5.658;2023-12-14T03:18:46;10.30;85.80
83283;DHT22;73190;50.780;5.658;2023-12-14T03:21:14;10.20;86.10
83283;DHT22;73190;50.780;5.658;2023-12-14T03:23:41;10.10;86.80
83283;DHT22;73190;50.780;5.658;2023-12-14T03:26:08;10.00;87.10
83283;DHT22;73190;50.780;5.658;2023-12-14T03:28:35;10.00;87.50
83283;DHT22;73190;50.780;5.658;2023-12-14T03:31:01;10.00;87.40
83283;DHT22;73190;50.780;5.658;2023-12-14T03:33:28;10.00;86.60
83283;DHT22;73190;50.780;5.658;2023-12-14T03:35:55;10.00;86.90
83283;DHT22;73190;50.780;5.658;2023-12-14T03:38:22;9.90;87.40
83283;DHT22;73190;50.780;5.658;2023-12-14T03:40:49;9.80;87.60
83283;DHT22;73190;50.780;5.658;2023-12-14T03:43:17;9.90;87.60
83283;DHT22;73190;50.780;5.658;2023-12-14T03:45:44;10.00;86.60
83283;DHT22;73190;50.780;5.658;2023-12-14T03:48:11;9.90;87.00
83283;DHT22;73190;50.780;5.658;2023-12-14T03:50:38;9.90;86.90
83283;DHT22;73190;50.780;5.658;2023-12-14T03:53:05;10.00;86.40
83283;DHT22;73190;50.780;5.658;2023-12-14T03:55:32;10.00;86.70
83283;DHT22;73190;50.780;5.658;2023-12-14T03:57:59;10.00;86.20
83283;DHT22;73190;50.780;5.658;2023-12-14T04:00:29;10.10;85.70
83283;DHT22;73190;50.780;5.658;2023-12-14T04:02:57;10.00;86.40
83283;DHT22;73190;50.780;5.658;2023-12-14T04:05:29;10.00;86.80
83283;DHT22;73190;50.780;5.658;2023-12-14T04:07:57;9.90;86.80
83283;DHT22;73190;50.780;5.658;2023-12-14T04:10:23;10.00;86.70
83283;DHT22;73190;50.780;5.658;2023-12-14T04:12:50;10.00;86.40
83283;DHT22;73190;50.780;5.658;2023-12-14T04:15:17;10.00;86.40
83283;DHT22;73190;50.780;5.658;2023-12-14T04:17:44;10.10;85.90
83283;DHT22;73190;50.780;5.658;2023-12-14T04:20:12;10.10;85.90
83283;DHT22;73190;50.780;5.658;2023-12-14T04:22:40;10.20;85.80
83283;DHT22;73190;50.780;5.658;2023-12-14T04:25:06;9.90;86.50
83283;DHT22;73190;50.780;5.658;2023-12-14T04:27:33;9.90;86.90
83283;DHT22;73190;50.780;5.658;2023-12-14T04:30:00;9.90;87.50
83283;DHT22;73190;50.780;5.658;2023-12-14T04:32:27;9.90;87.10
83283;DHT22;73190;50.780;5.658;2023-12-14T04:34:54;10.10;86.00
83283;DHT22;73190;50.780;5.658;2023-12-14T04:37:21;10.20;85.80
83283;DHT22;73190;50.780;5.658;2023-12-14T04:39:48;10.00;86.30
83283;DHT22;73190;50.780;5.658;2023-12-14T04:42:15;10.00;86.60
83283;DHT22;73190;50.780;5.658;2023-12-14T04:44:41;9.90;87.20
83283;DHT22;73190;50.780;5.658;2023-12-14T04:47:08;10.00;86.60
83283;DHT22;73190;50.780;5.658;2023-12-14T04:49:37;10.00;86.90
83283;DHT22;73190;50.780;5.658;2023-12-14T04:52:04;10.00;86.80
83283;DHT22;73190;50.780;5.658;2023-12-14T04:54:31;10.00;86.20
83283;DHT22;73190;50.780;5.658;2023-12-14T04:56:58;10.10;85.40
83283;DHT22;73190;50.780;5.658;2023-12-14T04:59:25;10.30;84.50
83283;DHT22;73190;50.780;5.658;2023-12-14T05:01:51;10.20;84.50
83283;DHT22;73190;50.780;5.658;2023-12-14T05:04:18;10.10;84.70
83283;DHT22;73190;50.780;5.658;2023-12-14T05:06:45;10.20;84.10
83283;DHT22;73190;50.780;5.658;2023-12-14T05:09:12;10.10;84.20
83283;DHT22;73190;50.780;5.658;2023-12-14T05:11:39;10.30;83.10
83283;DHT22;73190;50.780;5.658;2023-12-14T05:14:06;10.20;83.10
83283;DHT22;73190;50.780;5.658;2023-12-14T05:16:33;9.90;84.20
83283;DHT22;73190;50.780;5.658;2023-12-14T05:19:00;9.80;85.10
83283;DHT22;73190;50.780;5.658;2023-12-14T05:21:27;9.80;85.30
83283;DHT22;73190;50.780;5.658;2023-12-14T05:23:53;9.90;84.30
83283;DHT22;73190;50.780;5.658;2023-12-14T05:26:20;9.90;84.60
83283;DHT22;73190;50.780;5.658;2023-12-14T05:28:47;9.80;84.80
83283;DHT22;73190;50.780;5.658;2023-12-14T05:31:14;9.60;85.10
83283;DHT22;73190;50.780;5.658;2023-12-14T05:33:42;9.80;83.90
83283;DHT22;73190;50.780;5.658;2023-12-14T05:36:14;9.80;84.10
83283;DHT22;73190;50.780;5.658;2023-12-14T05:38:41;9.70;84.10
83283;DHT22;73190;50.780;5.658;2023-12-14T05:41:10;9.60;85.20
83283;DHT22;73190;50.780;5.658;2023-12-14T05:43:37;9.40;85.60
83283;DHT22;73190;50.780;5.658;2023-12-14T05:46:04;9.50;86.00
83283;DHT22;73190;50.780;5.658;2023-12-14T05:48:33;9.50;85.80
83283;DHT22;73190;50.780;5.658;2023-12-14T05:51:01;9.50;85.30
83283;DHT22;73190;50.780;5.658;2023-12-14T05:53:28;9.50;85.60
83283;DHT22;73190;50.780;5.658;2023-12-14T05:55:56;9.60;84.50
83283;DHT22;73190;50.780;5.658;2023-12-14T05:58:25;9.60;84.60
83283;DHT22;73190;50.780;5.658;2023-12-14T06:00:52;9.60;84.20
83283;DHT22;73190;50.780;5.658;2023-12-14T06:03:18;9.60;84.50
83283;DHT22;73190;50.780;5.658;2023-12-14T06:05:45;9.50;84.40
83283;DHT22;73190;50.780;5.658;2023-12-14T06:08:12;9.50;84.60
83283;DHT22;73190;50.780;5.658;2023-12-14T06:10:39;9.50;84.70
83283;DHT22;73190;50.780;5.658;2023-12-14T06:13:06;9.40;84.80
83283;DHT22;73190;50.780;5.658;2023-12-14T06:15:33;9.60;84.30
83283;DHT22;73190;50.780;5.658;2023-12-14T06:17:59;9.50;84.40
83283;DHT22;73190;50.780;5.658;2023-12-14T06:20:27;9.50;84.10
83283;DHT22;73190;50.780;5.658;2023-12-14T06:22:56;9.60;83.90
83283;DHT22;73190;50.780;5.658;2023-12-14T06:25:26;9.60;83.90
83283;DHT22;73190;50.780;5.658;2023-12-14T06:27:53;9.50;83.50
83283;DHT22;73190;50.780;5.658;2023-12-14T06:30:21;9.50;83.90
83283;DHT22;73190;50.780;5.658;2023-12-14T06:32:49;9.40;84.00
83283;DHT22;73190;50.780;5.658;2023-12-14T06:35:17;9.30;84.40
83283;DHT22;73190;50.780;5.658;2023-12-14T06:37:44;9.30;84.10
83283;DHT22;73190;50.780;5.658;2023-12-14T06:40:11;9.30;84.10
83283;DHT22;73190;50.780;5.658;2023-12-14T06:42:38;9.30;83.90
83283;DHT22;73190;50.780;5.658;2023-12-14T06:45:06;9.20;84.00
83283;DHT22;73190;50.780;5.658;2023-12-14T06:47:36;9.20;83.20
83283;DHT22;73190;50.780;5.658;2023-12-14T06:50:03;9.30;83.20
83283;DHT22;73190;50.780;5.658;2023-12-14T06:52:29;9.20;82.80
83283;DHT22;73190;50.780;5.658;2023-12-14T06:54:57;9.00;83.80
83283;DHT22;73190;50.780;5.658;2023-12-14T06:57:25;9.10;83.60
83283;DHT22;73190;50.780;5.658;2023-12-14T06:59:55;9.00;83.70
83283;DHT22;73190;50.780;5.658;2023-12-14T07:02:23;8.90;84.80
83283;DHT22;73190;50.780;5.658;2023-12-14T07:04:50;8.90;84.90
83283;DHT22;73190;50.780;5.658;2023-12-14T07:07:19;8.90;85.50
83283;DHT22;73190;50.780;5.658;2023-12-14T07:09:46;8.90;84.90
83283;DHT22;73190;50.780;5.658;2023-12-14T07:12:12;9.00;84.30
83283;DHT22;73190;50.780;5.658;2023-12-14T07:14:39;9.10;84.00
83283;DHT22;73190;50.780;5.658;2023-12-14T07:17:06;9.00;84.20
83283;DHT22;73190;50.780;5.658;2023-12-14T07:19:33;9.20;83.10
83283;DHT22;73190;50.780;5.658;2023-12-14T07:22:01;9.20;83.40
83283;DHT22;73190;50.780;5.658;2023-12-14T07:24:28;9.00;84.10
83283;DHT22;73190;50.780;5.658;2023-12-14T07:26:55;9.10;83.50
83283;DHT22;73190;50.780;5.658;2023-12-14T07:29:21;9.30;83.30
83283;DHT22;73190;50.780;5.658;2023-12-14T07:31:48;9.20;83.40
83283;DHT22;73190;50.780;5.658;2023-12-14T07:34:15;9.00;84.30
83283;DHT22;73190;50.780;5.658;2023-12-14T07:36:42;9.00;84.70
83283;DHT22;73190;50.780;5.658;2023-12-14T07:39:09;8.90;85.00
83283;DHT22;73190;50.780;5.658;2023-12-14T07:41:35;8.90;85.20
83283;DHT22;73190;50.780;5.658;2023-12-14T07:44:02;9.00;85.10
83283;DHT22;73190;50.780;5.658;2023-12-14T07:46:30;9.10;84.20
83283;DHT22;73190;50.780;5.658;2023-12-14T07:48:57;9.10;84.10
83283;DHT22;73190;50.780;5.658;2023-12-14T07:51:24;9.10;83.80
83283;DHT22;73190;50.780;5.658;2023-12-14T07:53:51;9.00;84.70
83283;DHT22;73190;50.780;5.658;2023-12-14T07:56:17;8.90;85.40
83283;DHT22;73190;50.780;5.658;2023-12-14T07:58:45;8.90;85.30
83283;DHT22;73190;50.780;5.658;2023-12-14T08:01:12;9.00;84.90
83283;DHT22;73190;50.780;5.658;2023-12-14T08:03:39;9.10;84.00
83283;DHT22;73190;50.780;5.658;2023-12-14T08:06:06;9.00;84.50
83283;DHT22;73190;50.780;5.658;2023-12-14T08:08:33;9.10;83.70
83283;DHT22;73190;50.780;5.658;2023-12-14T08:11:00;9.00;84.20
83283;DHT22;73190;50.780;5.658;2023-12-14T08:13:26;9.10;83.70
83283;DHT22;73190;50.780;5.658;2023-12-14T08:15:53;9.00;84.10
83283;DHT22;73190;50.780;5.658;2023-12-14T08:18:20;9.00;84.10
83283;DHT22;73190;50.780;5.658;2023-12-14T08:20:47;9.00;84.50
83283;DHT22;73190;50.780;5.658;2023-12-14T08:23:14;9.10;83.70
83283;DHT22;73190;50.780;5.658;2023-12-14T08:25:40;9.10;83.40
83283;DHT22;73190;50.780;5.658;2023-12-14T08:28:07;9.00;83.50
83283;DHT22;73190;50.780;5.658;2023-12-14T08:30:34;9.10;82.90
83283;DHT22;73190;50.780;5.658;2023-12-14T08:33:01;9.10;83.20
83283;DHT22;73190;50.780;5.658;2023-12-14T08:35:28;9.10;82.10
83283;DHT22;73190;50.780;5.658;2023-12-14T08:37:55;9.20;82.10
83283;DHT22;73190;50.780;5.658;2023-12-14T08:40:22;9.20;81.50
83283;DHT22;73190;50.780;5.658;2023-12-14T08:42:49;9.20;83.30
83283;DHT22;73190;50.780;5.658;2023-12-14T08:45:16;9.20;82.30
83283;DHT22;73190;50.780;5.658;2023-12-14T08:47:43;9.10;82.80
83283;DHT22;73190;50.780;5.658;2023-12-14T08:50:10;9.20;82.50
83283;DHT22;73190;50.780;5.658;2023-12-14T08:52:36;9.10;82.70
83283;DHT22;73190;50.780;5.658;2023-12-14T08:55:04;9.10;82.70
83283;DHT22;73190;50.780;5.658;2023-12-14T08:57:30;9.10;82.70
83283;DHT22;73190;50.780;5.658;2023-12-14T08:59:57;9.30;81.10
83283;DHT22;73190;50.780;5.658;2023-12-14T09:02:24;9.40;81.10
83283;DHT22;73190;50.780;5.658;2023-12-14T09:04:51;9.30;80.70
83283;DHT22;73190;50.780;5.658;2023-12-14T09:07:18;9.10;81.80
83283;DHT22;73190;50.780;5.658;2023-12-14T09:09:45;9.20;80.80
83283;DHT22;73190;50.780;5.658;2023-12-14T09:12:12;9.20;81.80
83283;DHT22;73190;50.780;5.658;2023-12-14T09:14:39;9.20;81.30
83283;DHT22;73190;50.780;5.658;2023-12-14T09:17:06;9.10;81.80
83283;DHT22;73190;50.780;5.658;2023-12-14T09:19:32;9.20;81.70
83283;DHT22;73190;50.780;5.658;2023-12-14T09:21:59;9.10;81.90
83283;DHT22;73190;50.780;5.658;2023-12-14T09:24:26;9.20;81.60
83283;DHT22;73190;50.780;5.658;2023-12-14T09:26:53;9.20;81.60
83283;DHT22;73190;50.780;5.658;2023-12-14T09:29:20;9.20;81.70
83283;DHT22;73190;50.780;5.658;2023-12-14T09:31:47;9.20;81.70
83283;DHT22;73190;50.780;5.658;2023-12-14T09:34:14;9.20;81.40
83283;DHT22;73190;50.780;5.658;2023-12-14T09:36:40;9.10;81.70
83283;DHT22;73190;50.780;5.658;2023-12-14T09:39:07;9.10;81.30
83283;DHT22;73190;50.780;5.658;2023-12-14T09:41:37;9.00;82.30
83283;DHT22;73190;50.780;5.658;2023-12-14T09:44:05;9.00;82.60
83283;DHT22;73190;50.780;5.658;2023-12-14T09:46:36;9.10;82.20
83283;DHT22;73190;50.780;5.658;2023-12-14T09:49:04;9.10;82.10
83283;DHT22;73190;50.780;5.658;2023-12-14T09:51:31;9.10;82.10
83283;DHT22;73190;50.780;5.658;2023-12-14T09:53:58;9.30;81.70
83283;DHT22;73190;50.780;5.658;2023-12-14T09:56:25;9.20;81.90
83283;DHT22;73190;50.780;5.658;2023-12-14T09:58:52;9.10;82.20
83283;DHT22;73190;50.780;5.658;2023-12-14T10:01:26;9.20;82.50
83283;DHT22;73190;50.780;5.658;2023-12-14T10:06:38;9.10;82.90
83283;DHT22;73190;50.780;5.658;2023-12-14T10:09:05;9.10;82.80
83283;DHT22;73190;50.780;5.658;2023-12-14T10:11:33;9.20;82.00
83283;DHT22;73190;50.780;5.658;2023-12-14T10:14:00;9.30;81.20
83283;DHT22;73190;50.780;5.658;2023-12-14T10:16:31;9.30;81.80
83283;DHT22;73190;50.780;5.658;2023-12-14T10:18:58;9.30;81.50
83283;DHT22;73190;50.780;5.658;2023-12-14T10:21:27;9.30;81.70
83283;DHT22;73190;50.780;5.658;2023-12-14T10:23:57;9.20;82.00
83283;DHT22;73190;50.780;5.658;2023-12-14T10:26:24;9.40;81.00
83283;DHT22;73190;50.780;5.658;2023-12-14T10:28:52;9.40;80.80
83283;DHT22;73190;50.780;5.658;2023-12-14T10:31:20;9.40;80.60
83283;DHT22;73190;50.780;5.658;2023-12-14T10:33:48;9.50;80.40
83283;DHT22;73190;50.780;5.658;2023-12-14T10:36:19;9.50;80.00
83283;DHT22;73190;50.780;5.658;2023-12-14T10:38:48;9.60;80.20
83283;DHT22;73190;50.780;5.658;2023-12-14T10:41:16;9.70;79.00
83283;DHT22;73190;50.780;5.658;2023-12-14T10:43:44;9.70;78.80
83283;DHT22;73190;50.780;5.658;2023-12-14T10:46:13;9.70;78.50
83283;DHT22;73190;50.780;5.658;2023-12-14T10:48:40;9.60;79.00
83283;DHT22;73190;50.780;5.658;2023-12-14T10:51:11;9.70;78.60
83283;DHT22;73190;50.780;5.658;2023-12-14T10:53:38;9.70;78.20
83283;DHT22;73190;50.780;5.658;2023-12-14T10:56:06;9.70;77.80
83283;DHT22;73190;50.780;5.658;2023-12-14T11:01:23;9.80;76.50
83283;DHT22;73190;50.780;5.658;2023-12-14T11:03:54;9.70;76.30
83283;DHT22;73190;50.780;5.658;2023-12-14T11:08:59;9.80;76.40
83283;DHT22;73190;50.780;5.658;2023-12-14T11:11:27;9.80;75.40
83283;DHT22;73190;50.780;5.658;2023-12-14T11:13:52;9.90;75.30
83283;DHT22;73190;50.780;5.658;2023-12-14T11:16:22;9.90;74.30
83283;DHT22;73190;50.780;5.658;2023-12-14T11:19:23;9.90;74.50
83283;DHT22;73190;50.780;5.658;2023-12-14T11:21:19;9.90;73.80
83283;DHT22;73190;50.780;5.658;2023-12-14T11:23:47;9.80;74.50
83283;DHT22;73190;50.780;5.658;2023-12-14T11:26:20;9.90;73.70
83283;DHT22;73190;50.780;5.658;2023-12-14T11:28:43;9.80;74.30
83283;DHT22;73190;50.780;5.658;2023-12-14T11:31:11;9.90;74.20
83283;DHT22;73190;50.780;5.658;2023-12-14T11:33:38;9.90;73.50
83283;DHT22;73190;50.780;5.658;2023-12-14T11:36:05;10.00;74.00
83283;DHT22;73190;50.780;5.658;2023-12-14T11:38:32;10.20;71.00
83283;DHT22;73190;50.780;5.658;2023-12-14T11:40:59;10.30;70.90
83283;DHT22;73190;50.780;5.658;2023-12-14T11:43:26;10.40;71.50
83283;DHT22;73190;50.780;5.658;2023-12-14T11:45:53;10.50;70.30
83283;DHT22;73190;50.780;5.658;2023-12-14T11:48:21;10.70;69.50
83283;DHT22;73190;50.780;5.658;2023-12-14T11:50:48;10.60;68.90
83283;DHT22;73190;50.780;5.658;2023-12-14T11:53:15;10.50;70.30
83283;DHT22;73190;50.780;5.658;2023-12-14T11:55:42;10.40;71.30
83283;DHT22;73190;50.780;5.658;2023-12-14T11:58:11;10.40;71.20
83283;DHT22;73190;50.780;5.658;2023-12-14T12:00:39;10.30;71.30
83283;DHT22;73190;50.780;5.658;2023-12-14T12:03:11;10.20;71.90
83283;DHT22;73190;50.780;5.658;2023-12-14T12:05:44;10.30;71.80
83283;DHT22;73190;50.780;5.658;2023-12-14T12:08:03;10.30;71.70
83283;DHT22;73190;50.780;5.658;2023-12-14T12:10:30;10.10;71.50
83283;DHT22;73190;50.780;5.658;2023-12-14T12:13:01;10.10;71.40
83283;DHT22;73190;50.780;5.658;2023-12-14T12:15:28;10.10;72.10
83283;DHT22;73190;50.780;5.658;2023-12-14T12:17:57;10.00;72.90
83283;DHT22;73190;50.780;5.658;2023-12-14T12:20:24;10.00;72.50
83283;DHT22;73190;50.780;5.658;2023-12-14T12:22:51;10.00;73.10
83283;DHT22;73190;50.780;5.658;2023-12-14T12:25:18;10.00;72.90
83283;DHT22;73190;50.780;5.658;2023-12-14T12:27:45;10.00;72.90
83283;DHT22;73190;50.780;5.658;2023-12-14T12:30:13;9.90;73.40
83283;DHT22;73190;50.780;5.658;2023-12-14T12:32:41;9.90;73.70
83283;DHT22;73190;50.780;5.658;2023-12-14T12:35:09;9.90;73.20
83283;DHT22;73190;50.780;5.658;2023-12-14T12:37:36;9.90;73.40
83283;DHT22;73190;50.780;5.658;2023-12-14T12:40:04;9.80;73.50
83283;DHT22;73190;50.780;5.658;2023-12-14T12:42:31;9.90;72.50
83283;DHT22;73190;50.780;5.658;2023-12-14T12:44:58;9.80;72.60
83283;DHT22;73190;50.780;5.658;2023-12-14T12:47:25;9.80;72.60
83283;DHT22;73190;50.780;5.658;2023-12-14T12:49:52;9.80;72.30
83283;DHT22;73190;50.780;5.658;2023-12-14T12:52:19;9.70;72.20
83283;DHT22;73190;50.780;5.658;2023-12-14T12:54:45;9.70;72.70
83283;DHT22;73190;50.780;5.658;2023-12-14T12:57:12;9.70;72.40
83283;DHT22;73190;50.780;5.658;2023-12-14T12:59:39;9.80;71.40
83283;DHT22;73190;50.780;5.658;2023-12-14T13:02:06;9.90;71.90
83283;DHT22;73190;50.780;5.658;2023-12-14T13:04:33;10.10;71.50
83283;DHT22;73190;50.780;5.658;2023-12-14T13:07:00;10.10;71.20
83283;DHT22;73190;50.780;5.658;2023-12-14T13:09:30;10.20;70.60
83283;DHT22;73190;50.780;5.658;2023-12-14T13:11:57;10.10;70.30
83283;DHT22;73190;50.780;5.658;2023-12-14T13:14:24;10.10;69.70
83283;DHT22;73190;50.780;5.658;2023-12-14T13:16:50;10.00;70.20
83283;DHT22;73190;50.780;5.658;2023-12-14T13:19:17;10.00;71.50
83283;DHT22;73190;50.780;5.658;2023-12-14T13:21:44;10.00;70.40
83283;DHT22;73190;50.780;5.658;2023-12-14T13:24:11;10.00;70.50
83283;DHT22;73190;50.780;5.658;2023-12-14T13:26:38;9.80;70.50
83283;DHT22;73190;50.780;5.658;2023-12-14T13:29:05;9.80;70.60
83283;DHT22;73190;50.780;5.658;2023-12-14T13:31:33;9.90;70.20
83283;DHT22;73190;50.780;5.658;2023-12-14T13:33:59;9.80;70.70
83283;DHT22;73190;50.780;5.658;2023-12-14T13:36:26;9.70;70.90
83283;DHT22;73190;50.780;5.658;2023-12-14T13:38:53;9.80;71.40
83283;DHT22;73190;50.780;5.658;2023-12-14T13:41:20;9.70;71.80
83283;DHT22;73190;50.780;5.658;2023-12-14T13:43:47;9.80;71.30
83283;DHT22;73190;50.780;5.658;2023-12-14T13:46:14;9.70;71.70
83283;DHT22;73190;50.780;5.658;2023-12-14T13:48:41;9.80;71.80
83283;DHT22;73190;50.780;5.658;2023-12-14T13:51:07;9.70;72.20
83283;DHT22;73190;50.780;5.658;2023-12-14T13:53:34;9.70;71.50
83283;DHT22;73190;50.780;5.658;2023-12-14T13:56:01;9.80;71.60
83283;DHT22;73190;50.780;5.658;2023-12-14T13:58:28;9.60;71.70
83283;DHT22;73190;50.780;5.658;2023-12-14T14:00:55;9.70;71.80
83283;DHT22;73190;50.780;5.658;2023-12-14T14:03:22;9.80;71.00
83283;DHT22;73190;50.780;5.658;2023-12-14T14:05:49;9.80;71.40
83283;DHT22;73190;50.780;5.658;2023-12-14T14:08:16;9.80;71.60
83283;DHT22;73190;50.780;5.658;2023-12-14T14:10:44;9.90;71.20
83283;DHT22;73190;50.780;5.658;2023-12-14T14:13:11;9.80;71.60
83283;DHT22;73190;50.780;5.658;2023-12-14T14:15:37;9.70;71.80
83283;DHT22;73190;50.780;5.658;2023-12-14T14:18:04;9.70;72.00
83283;DHT22;73190;50.780;5.658;2023-12-14T14:20:31;9.70;72.10
83283;DHT22;73190;50.780;5.658;2023-12-14T14:22:58;9.80;72.10
83283;DHT22;73190;50.780;5.658;2023-12-14T14:25:25;9.80;72.30
83283;DHT22;73190;50.780;5.658;2023-12-14T14:27:52;9.70;72.20
83283;DHT22;73190;50.780;5.658;2023-12-14T14:30:19;9.70;72.50
83283;DHT22;73190;50.780;5.658;2023-12-14T14:32:46;9.60;72.20
83283;DHT22;73190;50.780;5.658;2023-12-14T14:35:13;9.60;72.80
83283;DHT22;73190;50.780;5.658;2023-12-14T14:37:40;9.70;72.70
83283;DHT22;73190;50.780;5.658;2023-12-14T14:40:08;9.60;72.60
83283;DHT22;73190;50.780;5.658;2023-12-14T14:42:35;9.60;73.50
83283;DHT22;73190;50.780;5.658;2023-12-14T14:45:02;9.70;72.90
83283;DHT22;73190;50.780;5.658;2023-12-14T14:47:29;9.60;73.20
83283;DHT22;73190;50.780;5.658;2023-12-14T14:49:56;9.50;73.30
83283;DHT22;73190;50.780;5.658;2023-12-14T14:52:24;9.50;73.70
83283;DHT22;73190;50.780;5.658;2023-12-14T14:54:51;9.50;74.00
83283;DHT22;73190;50.780;5.658;2023-12-14T14:57:19;9.50;74.20
83283;DHT22;73190;50.780;5.658;2023-12-14T14:59:46;9.60;73.90
83283;DHT22;73190;50.780;5.658;2023-12-14T15:02:13;9.70;73.90
83283;DHT22;73190;50.780;5.658;2023-12-14T15:04:39;9.70;73.90
83283;DHT22;73190;50.780;5.658;2023-12-14T15:07:06;9.70;73.60
83283;DHT22;73190;50.780;5.658;2023-12-14T15:09:33;9.50;73.80
83283;DHT22;73190;50.780;5.658;2023-12-14T15:12:00;9.50;74.20
83283;DHT22;73190;50.780;5.658;2023-12-14T15:14:27;9.70;73.30
83283;DHT22;73190;50.780;5.658;2023-12-14T15:16:54;9.50;73.50
83283;DHT22;73190;50.780;5.658;2023-12-14T15:19:21;9.50;73.90
83283;DHT22;73190;50.780;5.658;2023-12-14T15:21:48;9.40;74.80
83283;DHT22;73190;50.780;5.658;2023-12-14T15:24:15;9.30;74.90
83283;DHT22;73190;50.780;5.658;2023-12-14T15:26:42;9.30;75.10
83283;DHT22;73190;50.780;5.658;2023-12-14T15:29:09;9.30;75.70
83283;DHT22;73190;50.780;5.658;2023-12-14T15:31:35;9.40;76.20
83283;DHT22;73190;50.780;5.658;2023-12-14T15:34:02;9.40;75.80
83283;DHT22;73190;50.780;5.658;2023-12-14T15:36:31;9.40;75.40
83283;DHT22;73190;50.780;5.658;2023-12-14T15:39:00;9.40;75.70
83283;DHT22;73190;50.780;5.658;2023-12-14T15:41:27;9.30;76.00
83283;DHT22;73190;50.780;5.658;2023-12-14T15:43:54;9.30;76.20
83283;DHT22;73190;50.780;5.658;2023-12-14T15:46:21;9.40;76.60
83283;DHT22;73190;50.780;5.658;2023-12-14T15:48:48;9.50;76.70
83283;DHT22;73190;50.780;5.658;2023-12-14T15:51:15;9.40;77.00